Time;durP1;ratioP1;P1;durP2;ratioP2;P2;SDS_P1;SDS_P2;PMS_P1;PMS_P2;Temp;Humidity;BMP_temperature;BMP_pressure;BME280_temperature;BME280_humidity;BME280_pressure;Samples;Min_cycle;Max_cycle;Signal;HPM_P1;HPM_P2
2023/10/21 00:00:39;;;;;;;23.85;3.63;;;;;;;;;;5055079;28;20036;-69
2023/10/21 00:03:05;;;;;;;15.90;2.78;;;;;;;;;;5055094;28;20047;-69
2023/10/21 00:05:32;;;;;;;24.35;4.65;;;;;;;;;;5055100;28;20519;-69
2023/10/21 00:07:58;;;;;;;23.08;3.22;;;;;;;;;;5055166;28;20037;-69
2023/10/21 00:10:24;;;;;;;15.73;3.13;;;;;;;;;;5055160;28;20029;-69
2023/10/21 00:12:51;;;;;;;24.67;3.85;;;;;;;;;;5054994;28;20021;-69
2023/10/21 00:15:17;;;;;;;21.02;3.25;;;;;;;;;;5054910;28;20029;-69
2023/10/21 00:17:43;;;;;;;18.67;2.97;;;;;;;;;;5055077;28;20074;-69
2023/10/21 00:20:10;;;;;;;25.05;3.85;;;;;;;;;;5054938;28;20017;-69
2023/10/21 00:22:36;;;;;;;25.88;3.67;;;;;;;;;;5054894;28;20037;-68
2023/10/21 00:25:04;;;;;;;18.55;3.40;;;;;;;;;;5054784;28;20382;-69
2023/10/21 00:27:30;;;;;;;19.98;3.05;;;;;;;;;;5054585;28;20412;-69
2023/10/21 00:29:56;;;;;;;22.25;3.25;;;;;;;;;;5054280;28;20021;-68
2023/10/21 00:32:23;;;;;;;18.60;3.03;;;;;;;;;;5054717;28;20397;-69
2023/10/21 00:34:49;;;;;;;15.10;3.10;;;;;;;;;;5053307;28;20027;-69
2023/10/21 00:37:15;;;;;;;20.27;3.10;;;;;;;;;;5054470;28;20025;-69
2023/10/21 00:39:46;;;;;;;14.02;2.35;;;;;;;;;;5054399;28;20017;-69
2023/10/21 00:42:12;;;;;;;18.27;2.67;;;;;;;;;;5054392;28;20041;-69
2023/10/21 00:44:38;;;;;;;22.08;2.83;;;;;;;;;;5053862;28;20029;-69
2023/10/21 00:47:05;;;;;;;17.55;3.25;;;;;;;;;;5054553;28;20093;-69
2023/10/21 00:49:31;;;;;;;18.88;2.92;;;;;;;;;;5054275;28;20415;-69
2023/10/21 00:52:01;;;;;;;16.88;3.47;;;;;;;;;;5054230;28;20367;-69
2023/10/21 00:54:28;;;;;;;18.90;2.88;;;;;;;;;;5054227;28;20047;-69
2023/10/21 00:56:54;;;;;;;16.33;2.70;;;;;;;;;;5053573;28;20428;-69
2023/10/21 00:59:21;;;;;;;12.35;2.55;;;;;;;;;;5054181;28;20089;-69
2023/10/21 01:01:48;;;;;;;13.15;2.63;;;;;;;;;;5054077;28;20380;-71
2023/10/21 01:04:16;;;;;;;14.65;2.30;;;;;;;;;;5054134;28;20044;-71
2023/10/21 01:06:45;;;;;;;19.73;3.33;;;;;;;;;;5054000;28;20025;-70
2023/10/21 01:09:15;;;;;;;14.60;2.60;;;;;;;;;;5053826;28;20090;-70
2023/10/21 01:11:41;;;;;;;17.02;2.20;;;;;;;;;;5053476;28;20033;-70
2023/10/21 01:14:09;;;;;;;17.70;2.80;;;;;;;;;;5053325;28;20035;-70
2023/10/21 01:16:35;;;;;;;18.13;2.63;;;;;;;;;;5053706;28;20017;-70
2023/10/21 01:19:02;;;;;;;15.77;2.13;;;;;;;;;;5053733;28;20493;-70
2023/10/21 01:21:28;;;;;;;18.73;2.72;;;;;;;;;;5053586;28;20496;-70
2023/10/21 01:23:54;;;;;;;15.70;2.65;;;;;;;;;;5053646;28;20471;-70
2023/10/21 01:26:21;;;;;;;14.23;2.25;;;;;;;;;;5053569;28;20021;-70
2023/10/21 01:28:47;;;;;;;18.27;2.33;;;;;;;;;;5053381;28;20029;-70
2023/10/21 01:31:13;;;;;;;16.27;3.10;;;;;;;;;;5053636;28;20029;-70
2023/10/21 01:33:40;;;;;;;18.27;3.00;;;;;;;;;;5053685;28;20043;-70
2023/10/21 01:36:06;;;;;;;19.20;2.90;;;;;;;;;;5053333;28;20508;-71
2023/10/21 01:38:32;;;;;;;18.73;2.85;;;;;;;;;;5053704;28;20027;-70
2023/10/21 01:40:58;;;;;;;21.17;2.70;;;;;;;;;;5052999;28;20508;-70
2023/10/21 01:43:25;;;;;;;17.15;2.65;;;;;;;;;;5053056;28;20032;-70
2023/10/21 01:45:51;;;;;;;19.13;3.05;;;;;;;;;;5053248;28;20029;-70
2023/10/21 01:48:17;;;;;;;18.52;2.75;;;;;;;;;;5053446;28;20029;-70
2023/10/21 01:50:44;;;;;;;19.38;2.80;;;;;;;;;;5053413;28;20019;-70
2023/10/21 01:53:11;;;;;;;12.88;2.83;;;;;;;;;;5053278;28;20033;-70
2023/10/21 01:55:37;;;;;;;14.18;2.67;;;;;;;;;;5052842;28;20114;-70
2023/10/21 01:58:04;;;;;;;13.82;2.63;;;;;;;;;;5053042;28;20067;-70
2023/10/21 02:00:30;;;;;;;15.55;2.75;;;;;;;;;;5052899;28;20410;-70
2023/10/21 02:02:57;;;;;;;18.45;2.95;;;;;;;;;;5052820;28;20029;-70
2023/10/21 02:05:24;;;;;;;23.13;2.75;;;;;;;;;;5052895;28;20458;-70
2023/10/21 02:07:51;;;;;;;23.00;2.97;;;;;;;;;;5053112;28;20033;-70
2023/10/21 02:10:17;;;;;;;17.38;2.58;;;;;;;;;;5052474;28;20021;-70
2023/10/21 02:12:43;;;;;;;23.27;3.08;;;;;;;;;;5052999;28;20031;-70
2023/10/21 02:15:16;;;;;;;24.73;3.17;;;;;;;;;;5052808;28;20088;-70
2023/10/21 02:17:44;;;;;;;21.40;3.00;;;;;;;;;;5051416;28;20031;-71
2023/10/21 02:20:14;;;;;;;27.92;2.90;;;;;;;;;;5052957;28;20024;-70
2023/10/21 02:22:41;;;;;;;21.40;3.08;;;;;;;;;;5052640;28;20039;-70
2023/10/21 02:25:11;;;;;;;18.23;2.67;;;;;;;;;;5051712;28;20377;-71
2023/10/21 02:27:39;;;;;;;15.93;2.83;;;;;;;;;;5052276;28;20106;-70
2023/10/21 02:30:07;;;;;;;24.90;3.05;;;;;;;;;;5052684;28;20029;-70
2023/10/21 02:32:33;;;;;;;15.73;2.45;;;;;;;;;;5052572;28;20024;-71
2023/10/21 02:34:59;;;;;;;15.82;2.63;;;;;;;;;;5052783;28;20017;-70
2023/10/21 02:37:26;;;;;;;14.48;3.08;;;;;;;;;;5052728;28;20029;-70
2023/10/21 02:39:52;;;;;;;19.05;2.92;;;;;;;;;;5052414;28;20017;-70
2023/10/21 02:42:18;;;;;;;20.73;2.67;;;;;;;;;;5052432;28;20029;-70
2023/10/21 02:44:45;;;;;;;19.52;3.20;;;;;;;;;;5052489;28;20024;-70
2023/10/21 02:47:12;;;;;;;23.80;3.92;;;;;;;;;;5052512;28;20501;-70
2023/10/21 02:49:39;;;;;;;12.20;2.38;;;;;;;;;;5052319;28;20032;-70
2023/10/21 02:52:05;;;;;;;15.05;2.83;;;;;;;;;;5052381;28;20021;-71
2023/10/21 02:54:31;;;;;;;20.40;3.40;;;;;;;;;;5052028;28;20033;-70
2023/10/21 02:56:58;;;;;;;24.63;2.97;;;;;;;;;;5052066;28;20031;-70
2023/10/21 02:59:24;;;;;;;18.45;2.92;;;;;;;;;;5052304;28;20033;-70
2023/10/21 03:01:50;;;;;;;19.40;2.60;;;;;;;;;;5052232;28;20481;-70
2023/10/21 03:04:17;;;;;;;21.92;2.65;;;;;;;;;;5052285;28;20478;-70
2023/10/21 03:06:43;;;;;;;11.88;2.53;;;;;;;;;;5052687;28;20033;-70
2023/10/21 03:09:09;;;;;;;14.52;2.47;;;;;;;;;;5051700;28;20031;-70
2023/10/21 03:11:36;;;;;;;19.27;2.92;;;;;;;;;;5052119;28;20021;-70
2023/10/21 03:14:02;;;;;;;17.75;3.55;;;;;;;;;;5052254;28;20029;-70
2023/10/21 03:16:28;;;;;;;17.92;2.40;;;;;;;;;;5050909;28;20385;-70
2023/10/21 03:18:55;;;;;;;15.98;2.83;;;;;;;;;;5052108;28;20029;-70
2023/10/21 03:21:21;;;;;;;20.42;3.00;;;;;;;;;;5052036;28;20029;-70
2023/10/21 03:23:47;;;;;;;17.45;2.72;;;;;;;;;;5051625;28;20066;-70
2023/10/21 03:26:14;;;;;;;15.65;2.72;;;;;;;;;;5051977;28;20027;-70
2023/10/21 03:28:43;;;;;;;12.70;2.55;;;;;;;;;;5052026;28;20025;-70
2023/10/21 03:31:10;;;;;;;19.25;2.72;;;;;;;;;;5051974;28;20088;-70
2023/10/21 03:33:36;;;;;;;21.30;2.88;;;;;;;;;;5051830;28;20090;-70
2023/10/21 03:36:04;;;;;;;13.85;2.53;;;;;;;;;;5052537;28;20033;-70
2023/10/21 03:38:31;;;;;;;19.58;2.85;;;;;;;;;;5054733;28;20470;-70
2023/10/21 03:41:06;;;;;;;14.63;2.65;;;;;;;;;;5055599;28;20025;-70
2023/10/21 03:43:33;;;;;;;17.98;2.50;;;;;;;;;;5055242;28;20033;-71
2023/10/21 03:46:02;;;;;;;18.67;2.83;;;;;;;;;;5055471;28;20031;-70
2023/10/21 03:48:28;;;;;;;15.85;2.40;;;;;;;;;;5055670;28;20055;-70
2023/10/21 03:51:01;;;;;;;18.45;2.63;;;;;;;;;;5055051;28;20017;-70
2023/10/21 03:53:29;;;;;;;16.42;1.88;;;;;;;;;;5055815;28;20025;-70
2023/10/21 03:55:55;;;;;;;15.43;2.35;;;;;;;;;;5055598;28;20013;-70
2023/10/21 03:58:21;;;;;;;17.80;2.45;;;;;;;;;;5055120;28;20037;-70
2023/10/21 04:00:48;;;;;;;15.57;2.95;;;;;;;;;;5055467;28;20037;-70
2023/10/21 04:03:14;;;;;;;14.15;2.28;;;;;;;;;;5054199;28;20059;-70
2023/10/21 04:05:42;;;;;;;16.23;2.30;;;;;;;;;;5054834;28;20025;-70
2023/10/21 04:08:08;;;;;;;13.30;2.30;;;;;;;;;;5055025;28;20017;-70
2023/10/21 04:10:34;;;;;;;9.40;2.08;;;;;;;;;;5054998;28;20031;-70
2023/10/21 04:13:01;;;;;;;12.10;2.60;;;;;;;;;;5055204;28;20025;-70
2023/10/21 04:15:28;;;;;;;13.95;2.40;;;;;;;;;;5054943;28;20059;-70
2023/10/21 04:17:54;;;;;;;12.80;2.63;;;;;;;;;;5054929;28;20018;-70
2023/10/21 04:20:21;;;;;;;13.05;1.92;;;;;;;;;;5054640;28;20025;-70
2023/10/21 04:22:48;;;;;;;15.15;2.40;;;;;;;;;;5054815;28;20039;-70
2023/10/21 04:25:14;;;;;;;17.13;2.65;;;;;;;;;;5054941;28;20362;-70
2023/10/21 04:27:40;;;;;;;12.80;2.33;;;;;;;;;;5053600;28;20024;-70
2023/10/21 04:30:08;;;;;;;18.30;1.85;;;;;;;;;;5054999;28;20082;-70
2023/10/21 04:32:34;;;;;;;21.45;2.53;;;;;;;;;;5054883;28;20033;-70
2023/10/21 04:35:01;;;;;;;12.73;2.75;;;;;;;;;;5052969;28;20074;-70
2023/10/21 04:37:27;;;;;;;11.95;2.42;;;;;;;;;;5054517;28;20035;-70
2023/10/21 04:39:53;;;;;;;9.90;1.95;;;;;;;;;;5054714;28;20028;-70
2023/10/21 04:42:20;;;;;;;14.77;2.03;;;;;;;;;;5052942;28;20063;-70
2023/10/21 04:44:46;;;;;;;11.43;2.25;;;;;;;;;;5054374;28;20032;-70
2023/10/21 04:47:13;;;;;;;10.52;2.30;;;;;;;;;;5054303;28;20481;-70
2023/10/21 04:49:42;;;;;;;13.73;2.28;;;;;;;;;;5053109;28;20486;-70
2023/10/21 04:52:09;;;;;;;13.70;1.83;;;;;;;;;;5054257;28;20023;-70
2023/10/21 04:54:35;;;;;;;11.20;2.25;;;;;;;;;;5053149;28;20498;-70
2023/10/21 04:57:01;;;;;;;12.05;1.83;;;;;;;;;;5054513;28;20027;-70
2023/10/21 04:59:27;;;;;;;14.05;2.45;;;;;;;;;;5054002;28;20055;-70
2023/10/21 05:01:54;;;;;;;14.00;1.90;;;;;;;;;;5054368;28;20040;-70
2023/10/21 05:04:20;;;;;;;13.73;2.08;;;;;;;;;;5054040;28;20027;-70
2023/10/21 05:06:46;;;;;;;13.38;2.42;;;;;;;;;;5053994;28;20024;-70
2023/10/21 05:09:13;;;;;;;14.63;2.47;;;;;;;;;;5053811;28;20503;-70
2023/10/21 05:11:39;;;;;;;10.82;2.22;;;;;;;;;;5053841;28;20032;-70
2023/10/21 05:14:05;;;;;;;10.25;1.95;;;;;;;;;;5053887;28;20025;-70
2023/10/21 05:16:31;;;;;;;15.02;2.53;;;;;;;;;;5053789;28;20520;-70
2023/10/21 05:18:58;;;;;;;15.38;1.90;;;;;;;;;;5053631;28;20031;-70
2023/10/21 05:21:24;;;;;;;13.32;2.13;;;;;;;;;;5053860;28;20027;-70
2023/10/21 05:23:51;;;;;;;18.25;2.25;;;;;;;;;;5053615;28;20531;-70
2023/10/21 05:26:18;;;;;;;10.32;2.05;;;;;;;;;;5053659;28;20027;-70
2023/10/21 05:28:45;;;;;;;17.83;2.03;;;;;;;;;;5053432;28;20028;-70
2023/10/21 05:31:12;;;;;;;10.18;1.85;;;;;;;;;;5053804;28;20024;-70
2023/10/21 05:33:38;;;;;;;16.63;2.20;;;;;;;;;;5053052;28;20047;-70
2023/10/21 05:36:04;;;;;;;11.82;1.75;;;;;;;;;;5053645;28;20025;-70
2023/10/21 05:38:31;;;;;;;19.38;2.10;;;;;;;;;;5053402;28;20581;-70
2023/10/21 05:40:57;;;;;;;13.18;2.22;;;;;;;;;;5053208;28;20029;-69
2023/10/21 05:43:24;;;;;;;12.32;1.92;;;;;;;;;;5053175;28;20032;-70
2023/10/21 05:45:50;;;;;;;13.57;2.20;;;;;;;;;;5053198;28;20035;-70
2023/10/21 05:48:16;;;;;;;16.25;1.77;;;;;;;;;;5053079;28;20074;-70
2023/10/21 05:50:43;;;;;;;17.33;2.38;;;;;;;;;;5053153;28;20325;-71
2023/10/21 05:53:09;;;;;;;11.27;1.70;;;;;;;;;;5053025;28;20029;-70
2023/10/21 05:55:42;;;;;;;14.52;1.98;;;;;;;;;;5053361;28;20035;-70
2023/10/21 05:58:11;;;;;;;10.15;1.80;;;;;;;;;;5051907;28;20094;-70
2023/10/21 06:00:38;;;;;;;11.95;1.98;;;;;;;;;;5052832;28;20417;-70
2023/10/21 06:03:07;;;;;;;15.07;2.20;;;;;;;;;;5052547;28;20033;-70
2023/10/21 06:05:34;;;;;;;16.52;2.20;;;;;;;;;;5052897;28;20013;-70
2023/10/21 06:08:00;;;;;;;10.63;2.17;;;;;;;;;;5053123;28;20031;-70
2023/10/21 06:10:26;;;;;;;12.60;2.20;;;;;;;;;;5052787;28;20473;-70
2023/10/21 06:12:53;;;;;;;11.10;2.10;;;;;;;;;;5053179;28;20033;-70
2023/10/21 06:15:19;;;;;;;12.80;2.15;;;;;;;;;;5052802;28;20032;-70
2023/10/21 06:17:45;;;;;;;11.07;1.98;;;;;;;;;;5052536;28;20421;-70
2023/10/21 06:20:12;;;;;;;14.60;2.15;;;;;;;;;;5052742;28;20024;-70
2023/10/21 06:22:38;;;;;;;17.48;2.42;;;;;;;;;;5052599;28;20044;-70
2023/10/21 06:25:05;;;;;;;19.13;2.30;;;;;;;;;;5052580;28;20349;-70
2023/10/21 06:27:31;;;;;;;15.25;2.50;;;;;;;;;;5052522;28;20376;-70
2023/10/21 06:29:58;;;;;;;14.05;2.85;;;;;;;;;;5052856;28;20017;-70
2023/10/21 06:32:24;;;;;;;12.13;2.28;;;;;;;;;;5052370;28;20615;-69
2023/10/21 06:34:51;;;;;;;13.27;2.80;;;;;;;;;;5052820;28;20017;-70
2023/10/21 06:37:17;;;;;;;13.23;2.38;;;;;;;;;;5052523;28;20021;-70
2023/10/21 06:39:43;;;;;;;14.20;2.33;;;;;;;;;;5052807;28;20024;-70
2023/10/21 06:42:10;;;;;;;9.48;1.80;;;;;;;;;;5052463;28;20027;-70
2023/10/21 06:44:37;;;;;;;17.30;2.53;;;;;;;;;;5052388;28;20021;-70
2023/10/21 06:47:03;;;;;;;13.52;2.55;;;;;;;;;;5052006;28;20029;-70
2023/10/21 06:49:29;;;;;;;11.48;2.08;;;;;;;;;;5051244;28;20484;-70
2023/10/21 06:51:57;;;;;;;14.48;2.40;;;;;;;;;;5052774;28;20070;-70
2023/10/21 06:54:24;;;;;;;11.25;2.00;;;;;;;;;;5052615;28;20029;-70
2023/10/21 06:56:50;;;;;;;12.02;2.10;;;;;;;;;;5052630;28;20017;-70
2023/10/21 06:59:16;;;;;;;8.88;1.73;;;;;;;;;;5052146;28;20057;-70
2023/10/21 07:01:43;;;;;;;13.05;2.03;;;;;;;;;;5052130;28;20106;-70
2023/10/21 07:04:10;;;;;;;13.95;2.22;;;;;;;;;;5052231;28;20036;-70
2023/10/21 07:06:39;;;;;;;11.45;2.17;;;;;;;;;;5052246;28;20021;-70
2023/10/21 07:09:06;;;;;;;11.10;2.08;;;;;;;;;;5052037;28;20036;-70
2023/10/21 07:11:33;;;;;;;12.45;2.38;;;;;;;;;;5052618;28;20033;-70
2023/10/21 07:13:59;;;;;;;12.05;1.90;;;;;;;;;;5055770;28;20498;-70
2023/10/21 07:16:26;;;;;;;11.63;1.67;;;;;;;;;;5056117;28;20470;-70
2023/10/21 07:18:52;;;;;;;14.05;2.33;;;;;;;;;;5056053;28;20021;-70
2023/10/21 07:21:19;;;;;;;11.98;1.90;;;;;;;;;;5055863;28;20553;-70
2023/10/21 07:23:46;;;;;;;13.93;2.22;;;;;;;;;;5055888;28;20040;-70
2023/10/21 07:26:12;;;;;;;13.40;2.20;;;;;;;;;;5056267;28;20029;-70
2023/10/21 07:28:38;;;;;;;11.02;2.20;;;;;;;;;;5055512;28;20031;-70
2023/10/21 07:31:05;;;;;;;10.88;1.98;;;;;;;;;;5056001;28;20030;-70
2023/10/21 07:33:31;;;;;;;24.20;2.47;;;;;;;;;;5054473;28;20031;-70
2023/10/21 07:35:57;;;;;;;12.57;1.92;;;;;;;;;;5055763;28;20447;-70
2023/10/21 07:38:23;;;;;;;14.30;2.40;;;;;;;;;;5055643;28;20031;-70
2023/10/21 07:40:50;;;;;;;10.88;1.83;;;;;;;;;;5055912;28;20389;-70
2023/10/21 07:43:16;;;;;;;6.97;1.95;;;;;;;;;;5055163;28;20082;-70
2023/10/21 07:45:43;;;;;;;10.18;1.50;;;;;;;;;;5055672;28;20021;-70
2023/10/21 07:48:10;;;;;;;6.47;1.50;;;;;;;;;;5055545;28;20029;-70
2023/10/21 07:50:37;;;;;;;12.82;2.47;;;;;;;;;;5055332;28;20019;-70
2023/10/21 07:53:04;;;;;;;11.75;1.80;;;;;;;;;;5055415;28;20024;-70
2023/10/21 07:55:30;;;;;;;8.98;2.00;;;;;;;;;;5055630;28;20032;-70
2023/10/21 07:57:56;;;;;;;8.50;1.85;;;;;;;;;;5054813;28;20494;-70
2023/10/21 08:00:23;;;;;;;11.48;1.73;;;;;;;;;;5055250;28;20029;-70
2023/10/21 08:02:50;;;;;;;8.18;1.63;;;;;;;;;;5055181;28;20036;-70
2023/10/21 08:05:16;;;;;;;8.05;1.83;;;;;;;;;;5055280;28;20017;-70
2023/10/21 08:07:42;;;;;;;9.15;1.75;;;;;;;;;;5055095;28;20037;-68
2023/10/21 08:10:09;;;;;;;10.18;1.77;;;;;;;;;;5054968;28;20029;-69
2023/10/21 08:12:36;;;;;;;8.65;1.63;;;;;;;;;;5054714;28;20388;-70
2023/10/21 08:15:07;;;;;;;7.95;2.05;;;;;;;;;;5054979;28;20396;-70
2023/10/21 08:17:34;;;;;;;8.05;1.63;;;;;;;;;;5054300;28;20027;-69
2023/10/21 08:20:01;;;;;;;11.27;1.80;;;;;;;;;;5055222;28;20035;-70
2023/10/21 08:22:27;;;;;;;8.82;1.90;;;;;;;;;;5054914;28;20082;-70
2023/10/21 08:24:54;;;;;;;6.65;1.65;;;;;;;;;;5053771;28;20032;-68
2023/10/21 08:27:20;;;;;;;7.63;1.85;;;;;;;;;;5054708;28;20035;-70
2023/10/21 08:29:48;;;;;;;9.00;1.73;;;;;;;;;;5053723;28;20131;-69
2023/10/21 08:32:14;;;;;;;8.15;1.75;;;;;;;;;;5054747;28;20021;-70
2023/10/21 08:34:41;;;;;;;7.38;1.60;;;;;;;;;;5054630;28;20078;-70
2023/10/21 08:37:07;;;;;;;5.88;1.60;;;;;;;;;;5054827;28;20021;-70
2023/10/21 08:39:34;;;;;;;6.78;1.80;;;;;;;;;;5053351;28;20392;-70
2023/10/21 08:42:02;;;;;;;9.07;1.63;;;;;;;;;;5054165;28;20023;-70
2023/10/21 08:44:30;;;;;;;6.50;1.63;;;;;;;;;;5054348;28;20035;-70
2023/10/21 08:46:58;;;;;;;6.35;1.70;;;;;;;;;;5054523;28;20020;-70
2023/10/21 08:49:25;;;;;;;14.50;2.42;;;;;;;;;;5054602;28;20031;-70
2023/10/21 08:51:53;;;;;;;7.75;1.65;;;;;;;;;;5054303;28;20025;-70
2023/10/21 08:54:23;;;;;;;10.68;1.92;;;;;;;;;;5053378;28;20029;-70
2023/10/21 08:56:49;;;;;;;6.20;1.60;;;;;;;;;;5053971;28;20015;-70
2023/10/21 08:59:15;;;;;;;7.30;1.70;;;;;;;;;;5052744;28;20041;-70
2023/10/21 09:01:42;;;;;;;8.20;1.77;;;;;;;;;;5054199;28;20027;-70
2023/10/21 09:04:08;;;;;;;7.70;2.15;;;;;;;;;;5054021;28;20037;-70
2023/10/21 09:06:35;;;;;;;6.70;1.60;;;;;;;;;;5054013;28;20025;-70
2023/10/21 09:09:01;;;;;;;5.93;1.67;;;;;;;;;;5054244;28;20051;-70
2023/10/21 09:11:31;;;;;;;6.68;1.73;;;;;;;;;;5053523;28;20021;-70
2023/10/21 09:14:00;;;;;;;7.85;2.10;;;;;;;;;;5053884;28;20392;-68
2023/10/21 09:16:29;;;;;;;5.05;1.60;;;;;;;;;;5053841;28;20031;-70
2023/10/21 09:18:59;;;;;;;7.38;1.90;;;;;;;;;;5053719;28;20017;-70
2023/10/21 09:21:32;;;;;;;9.00;1.65;;;;;;;;;;5053733;28;20384;-70
2023/10/21 09:24:02;;;;;;;5.50;1.40;;;;;;;;;;5052577;28;20061;-70
2023/10/21 09:26:35;;;;;;;5.00;1.80;;;;;;;;;;5053505;28;20039;-70
2023/10/21 09:29:06;;;;;;;8.32;1.48;;;;;;;;;;5053466;28;20029;-70
2023/10/21 09:31:42;;;;;;;9.15;1.85;;;;;;;;;;5053554;28;20028;-70
2023/10/21 09:34:08;;;;;;;8.13;1.65;;;;;;;;;;5053371;28;20029;-70
2023/10/21 09:36:41;;;;;;;6.03;1.73;;;;;;;;;;5053215;28;20033;-70
2023/10/21 09:39:08;;;;;;;8.52;1.77;;;;;;;;;;5053345;28;20033;-70
2023/10/21 09:41:34;;;;;;;7.40;1.75;;;;;;;;;;5053293;28;20477;-70
2023/10/21 09:44:05;;;;;;;8.68;1.95;;;;;;;;;;5053159;28;20037;-70
2023/10/21 09:46:33;;;;;;;6.35;1.85;;;;;;;;;;5053225;28;20029;-70
2023/10/21 09:49:00;;;;;;;4.75;1.73;;;;;;;;;;5053146;28;20025;-70
2023/10/21 09:51:30;;;;;;;7.03;2.08;;;;;;;;;;5053447;28;20021;-70
2023/10/21 09:54:01;;;;;;;3.93;1.30;;;;;;;;;;5052115;28;20021;-70
2023/10/21 09:56:27;;;;;;;8.02;1.55;;;;;;;;;;5053114;28;20021;-69
2023/10/21 09:58:55;;;;;;;8.02;1.67;;;;;;;;;;5052817;28;20041;-71
2023/10/21 10:01:24;;;;;;;7.88;1.67;;;;;;;;;;5053006;28;20021;-70
2023/10/21 10:03:52;;;;;;;4.85;1.23;;;;;;;;;;5052959;28;20047;-70
2023/10/21 10:06:20;;;;;;;8.00;1.67;;;;;;;;;;5052842;28;20037;-70
2023/10/21 10:08:47;;;;;;;6.47;1.58;;;;;;;;;;5052601;28;20481;-70
2023/10/21 10:11:18;;;;;;;6.28;1.65;;;;;;;;;;5053175;28;20017;-70
2023/10/21 10:13:46;;;;;;;;;;;;;;;;;;5053175;28;20512;-69
2023/10/21 10:16:19;;;;;;;7.05;1.40;;;;;;;;;;5052836;28;19905;-70
2023/10/21 10:18:55;;;;;;;9.95;2.83;;;;;;;;;;5052711;28;20027;-70
2023/10/21 10:21:22;;;;;;;10.70;2.67;;;;;;;;;;5053041;28;20025;-69
2023/10/21 10:23:50;;;;;;;10.18;1.65;;;;;;;;;;5052183;28;20035;-70
2023/10/21 10:26:27;;;;;;;8.57;1.40;;;;;;;;;;5051430;28;20485;-70
2023/10/21 10:28:54;;;;;;;9.05;1.75;;;;;;;;;;5052645;28;20107;-70
2023/10/21 10:31:21;;;;;;;11.25;2.05;;;;;;;;;;5052637;28;20017;-70
2023/10/21 10:33:51;;;;;;;8.60;2.00;;;;;;;;;;5052591;28;20025;-70
2023/10/21 10:36:28;;;;;;;10.63;2.17;;;;;;;;;;5052494;28;20028;-70
2023/10/21 10:38:55;;;;;;;7.78;1.98;;;;;;;;;;5052267;28;20021;-69
2023/10/21 10:41:21;;;;;;;5.95;1.52;;;;;;;;;;5053082;28;20025;-70
2023/10/21 10:44:04;;;;;;;6.38;1.83;;;;;;;;;;5052242;28;20379;-70
2023/10/21 10:46:31;;;;;;;6.60;1.63;;;;;;;;;;5052585;28;20029;-69
2023/10/21 10:49:00;;;;;;;7.10;1.80;;;;;;;;;;5056564;28;20542;-70
2023/10/21 10:51:30;;;;;;;10.55;1.50;;;;;;;;;;5056483;28;20017;-70
2023/10/21 10:54:00;;;;;;;12.13;1.67;;;;;;;;;;5056475;28;20486;-69
2023/10/21 10:56:39;;;;;;;4.88;1.48;;;;;;;;;;5055714;28;20029;-70
2023/10/21 10:59:05;;;;;;;6.82;1.30;;;;;;;;;;5056220;28;20051;-70
2023/10/21 11:01:32;;;;;;;6.00;1.67;;;;;;;;;;5056371;28;20029;-70
2023/10/21 11:04:00;;;;;;;8.02;1.38;;;;;;;;;;5056279;28;20493;-70
2023/10/21 11:06:35;;;;;;;7.50;1.73;;;;;;;;;;5055984;28;20047;-70
2023/10/21 11:09:01;;;;;;;4.97;1.70;;;;;;;;;;5056134;28;20409;-70
2023/10/21 11:11:28;;;;;;;7.03;1.73;;;;;;;;;;5054973;28;20398;-70
2023/10/21 11:13:55;;;;;;;5.60;1.60;;;;;;;;;;5056159;28;20020;-70
2023/10/21 11:16:21;;;;;;;6.03;1.58;;;;;;;;;;5056097;28;20470;-70
2023/10/21 11:18:49;;;;;;;7.28;1.60;;;;;;;;;;5056028;28;20111;-70
2023/10/21 11:21:15;;;;;;;6.53;1.42;;;;;;;;;;5056065;28;20017;-70
2023/10/21 11:23:41;;;;;;;6.82;1.50;;;;;;;;;;5055695;28;20035;-69
2023/10/21 11:26:08;;;;;;;8.65;1.30;;;;;;;;;;5056278;28;20051;-70
2023/10/21 11:28:38;;;;;;;7.53;1.80;;;;;;;;;;5055752;28;20413;-70
2023/10/21 11:31:04;;;;;;;5.03;1.15;;;;;;;;;;5055795;28;20036;-70
2023/10/21 11:33:31;;;;;;;6.50;1.60;;;;;;;;;;5055835;28;20024;-70
2023/10/21 11:35:59;;;;;;;7.43;1.70;;;;;;;;;;5055723;28;20051;-70
2023/10/21 11:38:28;;;;;;;5.13;1.20;;;;;;;;;;5054710;28;20025;-70
2023/10/21 11:40:55;;;;;;;6.20;1.45;;;;;;;;;;5055760;28;20115;-70
2023/10/21 11:43:21;;;;;;;7.88;1.58;;;;;;;;;;5055312;28;20500;-70
2023/10/21 11:45:54;;;;;;;3.58;1.30;;;;;;;;;;5055658;28;20029;-70
2023/10/21 11:48:20;;;;;;;7.40;1.42;;;;;;;;;;5055348;28;20035;-70
2023/10/21 11:50:47;;;;;;;7.15;1.40;;;;;;;;;;5055365;28;20031;-70
2023/10/21 11:53:13;;;;;;;3.67;1.70;;;;;;;;;;5055537;28;20485;-70
2023/10/21 11:59:28;;;;;;;4.43;1.50;;;;;;;;;;5055003;28;20041;-68
2023/10/21 12:12:22;;;;;;;2.55;1.08;;;;;;;;;;5054918;28;20401;-68
2023/10/21 12:33:19;;;;;;;6.00;1.20;;;;;;;;;;5054720;28;20025;-69
2023/10/21 12:38:40;;;;;;;5.38;0.90;;;;;;;;;;5054492;28;20039;-71
2023/10/21 12:41:20;;;;;;;6.22;1.50;;;;;;;;;;5054651;28;20017;-70
2023/10/21 12:43:49;;;;;;;5.70;1.02;;;;;;;;;;5054265;28;20405;-70
2023/10/21 12:46:18;;;;;;;5.30;1.65;;;;;;;;;;5054434;28;20035;-70
2023/10/21 12:48:51;;;;;;;3.20;1.17;;;;;;;;;;5054205;28;20032;-70
2023/10/21 12:51:19;;;;;;;2.10;1.20;;;;;;;;;;5054355;28;20024;-70
2023/10/21 12:53:45;;;;;;;6.55;1.10;;;;;;;;;;5054223;28;20035;-68
2023/10/21 12:56:13;;;;;;;2.53;0.88;;;;;;;;;;5054236;28;20025;-68
2023/10/21 12:58:40;;;;;;;2.25;1.00;;;;;;;;;;5054184;28;20041;-69
2023/10/21 13:01:10;;;;;;;4.60;1.25;;;;;;;;;;5054032;28;20074;-70
2023/10/21 13:03:40;;;;;;;3.00;0.95;;;;;;;;;;5053685;28;20029;-70
2023/10/21 13:06:06;;;;;;;4.43;1.02;;;;;;;;;;5054161;28;20043;-70
2023/10/21 13:08:34;;;;;;;4.68;1.05;;;;;;;;;;5053938;28;20021;-69
2023/10/21 13:11:00;;;;;;;5.93;1.00;;;;;;;;;;5053411;28;20389;-70
2023/10/21 13:13:35;;;;;;;2.88;0.98;;;;;;;;;;5053937;28;20029;-69
2023/10/21 13:16:03;;;;;;;7.03;1.33;;;;;;;;;;5054028;28;20488;-69
2023/10/21 13:18:30;;;;;;;5.07;1.05;;;;;;;;;;5053467;28;20035;-70
2023/10/21 13:20:56;;;;;;;3.63;0.95;;;;;;;;;;5053787;28;20028;-69
2023/10/21 13:23:23;;;;;;;4.75;1.33;;;;;;;;;;5053616;28;20500;-69
2023/10/21 13:25:49;;;;;;;2.40;0.88;;;;;;;;;;5053942;28;20025;-69
2023/10/21 13:28:15;;;;;;;5.28;1.23;;;;;;;;;;5053531;28;20035;-69
2023/10/21 13:30:47;;;;;;;4.55;1.10;;;;;;;;;;5052522;28;20035;-69
2023/10/21 13:33:14;;;;;;;2.40;0.97;;;;;;;;;;5053276;28;20512;-70
2023/10/21 13:35:41;;;;;;;5.78;1.00;;;;;;;;;;5053763;28;20134;-69
2023/10/21 13:38:11;;;;;;;3.58;1.20;;;;;;;;;;5053543;28;20499;-69
2023/10/21 13:40:39;;;;;;;4.90;1.45;;;;;;;;;;5053480;28;20021;-70
2023/10/21 13:43:05;;;;;;;2.85;1.20;;;;;;;;;;5053298;28;20049;-69
2023/10/21 13:45:32;;;;;;;2.15;0.98;;;;;;;;;;5053308;28;20021;-69
2023/10/21 13:48:19;;;;;;;4.80;0.82;;;;;;;;;;5053158;28;20049;-70
2023/10/21 13:50:48;;;;;;;2.35;1.00;;;;;;;;;;5053277;28;20027;-70
2023/10/21 13:53:17;;;;;;;3.50;0.95;;;;;;;;;;5053380;28;20032;-70
2023/10/21 13:55:46;;;;;;;2.40;0.82;;;;;;;;;;5053378;28;20482;-70
2023/10/21 13:58:18;;;;;;;2.25;0.82;;;;;;;;;;5052977;28;20047;-70
2023/10/21 14:00:44;;;;;;;2.97;1.10;;;;;;;;;;5052885;28;20428;-70
2023/10/21 14:03:12;;;;;;;4.00;1.13;;;;;;;;;;5052901;28;20039;-70
2023/10/21 14:05:40;;;;;;;3.25;0.80;;;;;;;;;;5052998;28;20028;-70
2023/10/21 14:08:07;;;;;;;2.53;0.73;;;;;;;;;;5052020;28;20051;-70
2023/10/21 14:10:41;;;;;;;5.15;1.25;;;;;;;;;;5052910;28;20025;-70
2023/10/21 14:13:12;;;;;;;4.63;1.02;;;;;;;;;;5052905;28;20017;-70
2023/10/21 14:15:40;;;;;;;4.38;1.10;;;;;;;;;;5052432;28;20025;-70
2023/10/21 14:18:06;;;;;;;4.35;1.10;;;;;;;;;;5053099;28;20013;-70
2023/10/21 14:20:35;;;;;;;3.17;1.40;;;;;;;;;;5052681;28;20033;-70
2023/10/21 14:23:03;;;;;;;9.65;1.40;;;;;;;;;;5052624;28;20370;-70
2023/10/21 14:25:30;;;;;;;4.20;1.10;;;;;;;;;;5052698;28;20025;-69
2023/10/21 14:27:56;;;;;;;3.15;1.17;;;;;;;;;;5051821;28;20074;-69
2023/10/21 14:30:23;;;;;;;2.70;1.00;;;;;;;;;;5052755;28;20066;-70
2023/10/21 14:32:49;;;;;;;3.88;1.00;;;;;;;;;;5052794;28;20033;-69
2023/10/21 14:35:15;;;;;;;4.82;1.25;;;;;;;;;;5052856;28;20035;-69
2023/10/21 14:37:42;;;;;;;3.50;1.30;;;;;;;;;;5052546;28;20021;-69
2023/10/21 14:40:10;;;;;;;5.15;1.30;;;;;;;;;;5052404;28;20388;-70
2023/10/21 14:42:37;;;;;;;3.15;1.00;;;;;;;;;;5052319;28;20509;-70
2023/10/21 14:45:04;;;;;;;4.43;1.08;;;;;;;;;;5052159;28;20041;-70
2023/10/21 14:47:33;;;;;;;6.53;1.23;;;;;;;;;;5052416;28;20027;-70
2023/10/21 14:50:01;;;;;;;3.90;1.00;;;;;;;;;;5052539;28;20039;-70
2023/10/21 14:52:27;;;;;;;3.92;1.13;;;;;;;;;;5052319;28;20470;-70
2023/10/21 14:54:55;;;;;;;3.28;1.25;;;;;;;;;;5052494;28;20103;-70
2023/10/21 14:57:23;;;;;;;5.00;1.10;;;;;;;;;;5052194;28;20462;-70
2023/10/21 14:59:50;;;;;;;3.33;1.25;;;;;;;;;;5051976;28;20547;-70
2023/10/21 15:02:19;;;;;;;4.55;1.30;;;;;;;;;;5052467;28;20055;-70
2023/10/21 15:04:48;;;;;;;4.25;1.20;;;;;;;;;;5052639;28;20021;-70
2023/10/21 15:07:16;;;;;;;4.25;1.20;;;;;;;;;;5052354;28;20021;-70
2023/10/21 15:09:43;;;;;;;3.58;1.27;;;;;;;;;;5052447;28;20074;-70
2023/10/21 15:12:09;;;;;;;3.75;1.38;;;;;;;;;;5052459;28;20033;-69